This is the latest recevied weather packets stored in our database for station/object AA4OM-2. If no packets are shown the sender has not sent any weather packets the latest 10 day(s).
| Time | Temp. | Humidity | Pressure | Rain* | Wind** | Luminosity | Snow |
|---|---|---|---|---|---|---|---|
| 1777136387 | 23.89° C | 56% | 1011.2 hPa | 0 mm | - | 957 W/m² | - |
| 1777136084 | 23.89° C | 58% | 1011.2 hPa | 0 mm | - | 951 W/m² | - |
| 1777135780 | 23.33° C | 61% | 1011.2 hPa | 0 mm | - | 939 W/m² | - |
| 1777135476 | 23.33° C | 60% | 1011.4 hPa | 0 mm | - | 937 W/m² | - |
| 1777135172 | 23.89° C | 60% | 1011.1 hPa | 0 mm | - | 926 W/m² | - |
| 1777134870 | 23.33° C | 61% | 1011.3 hPa | 0 mm | - | 921 W/m² | - |
| 1777134566 | 23.89° C | 60% | 1011.6 hPa | 0 mm | - | 917 W/m² | - |
| 1777134263 | 23.33° C | 60% | 1011.2 hPa | 0 mm | - | 907 W/m² | - |
| 1777133960 | 23.33° C | 59% | 1011.6 hPa | 0 mm | - | 900 W/m² | - |
| 1777133656 | 23.33° C | 60% | 1011.5 hPa | 0 mm | - | 889 W/m² | - |
| 1777133355 | 22.22° C | 63% | 1011.4 hPa | 0 mm | - | 880 W/m² | - |
| 1777133049 | 22.22° C | 65% | 1011.2 hPa | 0 mm | - | 866 W/m² | - |
| 1777132746 | 22.78° C | 63% | 1011.6 hPa | 0 mm | - | 852 W/m² | - |
| 1777132441 | 22.78° C | 65% | 1011.2 hPa | 0 mm | - | 842 W/m² | - |
| 1777132139 | 22.22° C | 66% | 1011.5 hPa | 0 mm | - | 834 W/m² | - |
| 1777131834 | 22.78° C | 66% | 1011.3 hPa | 0 mm | - | 819 W/m² | - |
| 1777131532 | 22.78° C | 65% | 1011.4 hPa | 0 mm | - | 804 W/m² | - |
| 1777131227 | 22.22° C | 65% | 1011.4 hPa | 0 mm | - | 282 W/m² | - |
| 1777130921 | 22.22° C | 66% | 1011.2 hPa | 0 mm | - | 662 W/m² | - |
| 1777130617 | 22.22° C | 66% | 1011.2 hPa | 0 mm | - | 610 W/m² | - |
| 1777130315 | 21.67° C | 69% | 1011.2 hPa | 0 mm | - | 157 W/m² | - |
| 1777130011 | 21.67° C | 68% | 1011.3 hPa | 0 mm | - | 129 W/m² | - |
| 1777129707 | 21.67° C | 68% | 1011.3 hPa | 0 mm | - | 141 W/m² | - |
| 1777129406 | 22.22° C | 67% | 1011.3 hPa | 0 mm | - | 93 W/m² | - |
| 1777129101 | 21.67° C | 73% | 1011 hPa | 0 mm | - | 94 W/m² | - |
* Rain latest hour (hover to see other rain measurements)
** Current wind speed in m/s (hover to see current wind gust speed)